createdAt,value
2017-05-26T00:00:38.540Z,23.42
2017-05-26T00:03:06.675Z,23.94
2017-05-26T00:05:34.416Z,20.06
2017-05-26T00:08:02.338Z,24.54
2017-05-26T00:10:30.275Z,25.20
2017-05-26T00:12:58.031Z,24.98
2017-05-26T00:15:25.774Z,22.54
2017-05-26T00:17:53.606Z,24.08
2017-05-26T00:20:21.339Z,23.84
2017-05-26T00:22:49.092Z,21.88
2017-05-26T00:25:16.912Z,23.52
2017-05-26T00:27:45.860Z,21.80
2017-05-26T00:30:13.616Z,23.98
2017-05-26T00:32:41.381Z,24.58
2017-05-26T00:35:09.133Z,24.46
2017-05-26T00:37:36.873Z,23.42
2017-05-26T00:40:05.492Z,23.00
2017-05-26T00:42:33.223Z,22.30
2017-05-26T00:45:00.956Z,21.26
2017-05-26T00:47:28.884Z,21.42
2017-05-26T00:49:56.648Z,24.08
2017-05-26T00:52:24.384Z,21.36
2017-05-26T00:54:52.149Z,23.42
2017-05-26T00:57:19.880Z,22.24
2017-05-26T00:59:47.640Z,20.38
2017-05-26T01:02:15.568Z,21.38
2017-05-26T01:04:43.311Z,22.58
2017-05-26T01:07:11.039Z,23.72
2017-05-26T01:09:39.991Z,21.20
2017-05-26T01:12:07.729Z,22.50
2017-05-26T01:14:35.464Z,22.92
2017-05-26T01:17:03.805Z,22.54
2017-05-26T01:19:31.536Z,23.16
2017-05-26T01:21:59.287Z,24.74
2017-05-26T01:24:27.065Z,24.54
2017-05-26T01:26:54.801Z,24.96
2017-05-26T01:29:23.023Z,24.44
2017-05-26T01:31:51.275Z,23.66
2017-05-26T01:34:19.524Z,22.22
2017-05-26T01:36:47.279Z,23.12
2017-05-26T01:39:15.891Z,22.26
2017-05-26T01:41:43.629Z,22.20
2017-05-26T01:44:11.359Z,22.30
2017-05-26T01:46:39.828Z,21.26
2017-05-26T01:49:07.555Z,23.48
2017-05-26T01:51:35.296Z,23.50
2017-05-26T01:54:03.737Z,21.70
2017-05-26T01:56:31.479Z,23.10
2017-05-26T01:58:59.204Z,21.72
2017-05-26T02:01:26.966Z,20.14
2017-05-26T02:03:54.700Z,21.92
2017-05-26T02:06:22.456Z,23.98
2017-05-26T02:08:50.207Z,21.72
2017-05-26T02:11:17.956Z,21.38
2017-05-26T02:13:45.681Z,21.98
2017-05-26T02:16:14.627Z,19.80
2017-05-26T02:18:42.360Z,19.88
2017-05-26T02:21:10.095Z,20.42
2017-05-26T02:23:37.952Z,19.80
2017-05-26T02:26:05.692Z,20.34
2017-05-26T02:28:33.428Z,20.42
2017-05-26T02:31:02.239Z,20.66
2017-05-26T02:33:29.978Z,18.78
2017-05-26T02:35:57.711Z,21.00
2017-05-26T02:38:25.832Z,20.20
2017-05-26T02:40:53.564Z,18.24
2017-05-26T02:43:21.301Z,20.66
2017-05-26T02:45:49.536Z,21.76
2017-05-26T02:48:17.271Z,21.66
2017-05-26T02:50:45.004Z,19.04
2017-05-26T02:53:12.760Z,20.72
2017-05-26T02:55:40.508Z,20.22
2017-05-26T02:58:08.240Z,17.56
2017-05-26T03:00:36.548Z,18.92
2017-05-26T03:03:04.284Z,17.36
2017-05-26T03:05:32.008Z,18.68
2017-05-26T03:08:00.128Z,18.56
2017-05-26T03:10:27.862Z,18.84
2017-05-26T03:12:55.596Z,17.60
2017-05-26T03:15:23.521Z,18.06
2017-05-26T03:17:51.257Z,18.80
2017-05-26T03:20:18.988Z,16.74
2017-05-26T03:22:47.117Z,18.18
2017-05-26T03:25:14.848Z,17.20
2017-05-26T03:27:42.576Z,15.04
2017-05-26T03:30:10.344Z,18.50
2017-05-26T03:32:38.280Z,16.56
2017-05-26T03:35:06.027Z,17.02
2017-05-26T03:37:33.795Z,17.64
2017-05-26T03:40:01.529Z,14.94
2017-05-26T03:42:29.255Z,17.48
2017-05-26T03:44:57.017Z,16.36
2017-05-26T03:47:24.763Z,15.18
2017-05-26T03:49:52.492Z,13.42
2017-05-26T03:52:20.262Z,13.82
2017-05-26T03:54:48.011Z,14.84
2017-05-26T03:57:15.748Z,13.16
2017-05-26T03:59:43.989Z,13.14
2017-05-26T04:02:11.726Z,12.72
2017-05-26T04:04:39.464Z,15.20
2017-05-26T04:07:09.027Z,12.70
2017-05-26T04:09:36.760Z,12.42
2017-05-26T04:12:04.488Z,12.38
2017-05-26T04:14:32.247Z,11.36
2017-05-26T04:17:00.004Z,13.06
2017-05-26T04:19:27.735Z,11.66
2017-05-26T04:21:55.508Z,12.30
2017-05-26T04:24:23.241Z,11.46
2017-05-26T04:26:50.968Z,11.48
2017-05-26T04:29:18.860Z,11.82
2017-05-26T04:31:46.591Z,11.68
2017-05-26T04:34:14.328Z,10.50
2017-05-26T04:36:42.084Z,11.58
2017-05-26T04:39:09.829Z,12.22
2017-05-26T04:41:37.568Z,10.60
2017-05-26T04:44:05.476Z,11.02
2017-05-26T04:46:33.221Z,9.92
2017-05-26T04:49:00.952Z,7.72
2017-05-26T04:51:28.727Z,11.04
2017-05-26T04:53:56.465Z,10.56
2017-05-26T04:56:24.200Z,11.20
2017-05-26T04:58:52.159Z,8.64
2017-05-26T05:01:19.194Z,9.86
2017-05-26T05:03:46.928Z,9.18
2017-05-26T05:06:15.840Z,9.88
2017-05-26T05:08:43.568Z,8.20
2017-05-26T05:11:11.296Z,8.56
2017-05-26T05:13:39.230Z,9.16
2017-05-26T05:16:06.964Z,8.70
2017-05-26T05:18:34.708Z,8.80
2017-05-26T05:21:03.160Z,8.96
2017-05-26T05:23:30.888Z,9.46
2017-05-26T05:25:58.616Z,8.70
2017-05-26T05:28:26.547Z,8.94
2017-05-26T05:30:54.276Z,8.66
2017-05-26T05:33:22.009Z,8.78
2017-05-26T05:35:50.967Z,7.88
2017-05-26T05:38:18.697Z,9.36
2017-05-26T05:40:46.427Z,8.64
2017-05-26T05:43:14.192Z,8.16
2017-05-26T05:45:41.927Z,7.64
2017-05-26T05:48:09.683Z,7.80
2017-05-26T05:50:39.295Z,7.24
2017-05-26T05:53:07.033Z,7.12
2017-05-26T05:55:34.764Z,7.20
2017-05-26T05:58:02.900Z,7.36
2017-05-26T06:00:30.624Z,7.20
2017-05-26T06:02:58.365Z,7.70
2017-05-26T06:05:26.389Z,7.88
2017-05-26T06:07:54.109Z,7.88
2017-05-26T06:10:21.840Z,7.42
2017-05-26T06:12:49.780Z,8.04
2017-05-26T06:15:17.500Z,7.78
2017-05-26T06:17:45.248Z,7.40
2017-05-26T06:20:13.390Z,7.20
2017-05-26T06:22:41.127Z,7.06
2017-05-26T06:25:08.865Z,7.98
2017-05-26T06:27:36.633Z,7.54
2017-05-26T06:30:04.367Z,7.16
2017-05-26T06:32:32.099Z,7.28
2017-05-26T06:35:00.167Z,7.84
2017-05-26T06:37:28.342Z,7.42
2017-05-26T06:39:56.068Z,7.38
2017-05-26T06:42:23.820Z,6.78
2017-05-26T06:44:51.569Z,6.88
2017-05-26T06:47:19.302Z,6.68
2017-05-26T06:49:47.076Z,7.30
2017-05-26T06:52:14.805Z,7.98
2017-05-26T06:54:42.532Z,5.92
2017-05-26T06:57:10.768Z,6.70
2017-05-26T06:59:38.497Z,6.60
2017-05-26T07:02:06.265Z,7.88
2017-05-26T07:04:34.008Z,7.22
2017-05-26T07:07:01.728Z,7.90
2017-05-26T07:09:29.464Z,7.28
2017-05-26T07:11:58.724Z,6.78
2017-05-26T07:14:26.445Z,6.08
2017-05-26T07:16:54.173Z,6.98
2017-05-26T07:19:22.293Z,6.12
2017-05-26T07:21:50.018Z,7.08
2017-05-26T07:24:17.739Z,6.40
2017-05-26T07:26:45.772Z,7.32
2017-05-26T07:29:13.491Z,6.74
2017-05-26T07:31:41.220Z,5.86
2017-05-26T07:34:08.937Z,6.16
2017-05-26T07:36:36.712Z,6.24
2017-05-26T07:39:04.439Z,6.24
2017-05-26T07:41:32.476Z,6.92
2017-05-26T07:44:00.208Z,6.98
2017-05-26T07:46:27.936Z,5.60
2017-05-26T07:48:55.756Z,7.24
2017-05-26T07:51:23.544Z,5.84
2017-05-26T07:53:51.330Z,7.02
2017-05-26T07:56:19.873Z,7.04
2017-05-26T07:58:46.896Z,7.38
2017-05-26T08:01:14.684Z,8.96
2017-05-26T08:03:42.637Z,8.20
2017-05-26T08:06:10.423Z,12.48
2017-05-26T08:08:38.212Z,8.54
2017-05-26T08:11:05.248Z,8.10
2017-05-26T08:13:33.057Z,8.28
2017-05-26T08:16:00.837Z,6.98
2017-05-26T08:18:28.648Z,7.12
2017-05-26T08:20:56.440Z,7.26
2017-05-26T08:23:24.268Z,7.26
2017-05-26T08:25:52.473Z,7.14
2017-05-26T08:28:20.273Z,7.22
2017-05-26T08:30:48.056Z,7.82
2017-05-26T08:33:16.069Z,8.62
2017-05-26T08:35:43.858Z,8.60
2017-05-26T08:38:11.646Z,8.70
2017-05-26T08:40:39.792Z,7.96
2017-05-26T08:43:06.808Z,7.68
2017-05-26T08:45:34.591Z,6.54
2017-05-26T08:48:02.556Z,7.92
2017-05-26T08:50:30.340Z,7.10
2017-05-26T08:52:58.233Z,6.84
2017-05-26T08:55:26.376Z,7.24
2017-05-26T08:57:54.175Z,7.36
2017-05-26T09:00:21.952Z,8.02
2017-05-26T09:02:50.486Z,7.10
2017-05-26T09:05:18.275Z,6.66
2017-05-26T09:07:45.300Z,8.06
2017-05-26T09:10:13.372Z,7.98
2017-05-26T09:12:41.179Z,7.44
2017-05-26T09:15:09.001Z,7.70
2017-05-26T09:17:37.181Z,7.22
2017-05-26T09:20:05.005Z,6.60
2017-05-26T09:22:32.812Z,7.42
2017-05-26T09:25:01.665Z,7.72
2017-05-26T09:27:29.475Z,7.24
2017-05-26T09:29:57.269Z,7.60
2017-05-26T09:32:25.088Z,6.38
2017-05-26T09:34:52.890Z,6.82
2017-05-26T09:37:20.700Z,7.08
2017-05-26T09:39:48.915Z,6.12
2017-05-26T09:42:17.347Z,5.80
2017-05-26T09:44:45.200Z,6.22
2017-05-26T09:47:13.385Z,6.04
2017-05-26T09:49:41.192Z,6.06
2017-05-26T09:52:08.976Z,7.30
2017-05-26T09:54:36.805Z,7.00
2017-05-26T09:57:04.616Z,7.72
2017-05-26T09:59:32.396Z,8.92
2017-05-26T10:02:00.568Z,7.56
2017-05-26T10:04:28.345Z,6.64
2017-05-26T10:08:23.285Z,7.00
2017-05-26T10:10:51.082Z,7.96
2017-05-26T10:13:18.869Z,7.52
2017-05-26T10:15:46.684Z,6.94
2017-05-26T10:18:14.544Z,7.56
2017-05-26T10:20:42.324Z,8.44
2017-05-26T10:23:09.869Z,7.96
2017-05-26T10:25:37.657Z,7.40
2017-05-26T10:28:05.441Z,6.88
2017-05-26T10:30:33.467Z,6.40
2017-05-26T10:33:01.250Z,7.60
2017-05-26T10:35:29.039Z,7.70
2017-05-26T10:37:57.191Z,7.36
2017-05-26T10:40:24.981Z,7.42
2017-05-26T10:42:52.780Z,6.66
2017-05-26T10:45:20.592Z,7.14
2017-05-26T10:47:48.402Z,6.76
2017-05-26T10:50:16.221Z,7.54
2017-05-26T10:52:45.286Z,7.30
2017-05-26T10:55:13.081Z,7.36
2017-05-26T10:57:40.861Z,6.18
2017-05-26T11:00:08.990Z,6.54
2017-05-26T11:02:36.877Z,6.82
2017-05-26T11:05:04.661Z,6.32
2017-05-26T11:07:32.460Z,6.16
2017-05-26T11:10:00.267Z,6.50
2017-05-26T11:12:28.068Z,6.32
2017-05-26T11:14:56.996Z,5.78
2017-05-26T11:17:24.788Z,5.86
2017-05-26T11:19:52.572Z,6.30
2017-05-26T11:22:21.015Z,6.58
2017-05-26T11:24:48.808Z,6.52
2017-05-26T11:27:16.629Z,5.90
2017-05-26T11:29:45.644Z,6.22
2017-05-26T11:32:13.427Z,6.34
2017-05-26T11:34:41.209Z,7.60
2017-05-26T11:37:09.038Z,8.88
2017-05-26T11:39:36.840Z,7.34
2017-05-26T11:42:03.874Z,8.86
2017-05-26T11:44:31.832Z,8.48
2017-05-26T11:46:59.637Z,8.00
2017-05-26T11:49:27.422Z,8.06
2017-05-26T11:51:56.553Z,7.06
2017-05-26T11:54:24.352Z,8.18
2017-05-26T11:56:52.160Z,7.56
2017-05-26T11:59:20.097Z,8.50
2017-05-26T12:01:47.121Z,7.98
2017-05-26T12:04:14.913Z,7.70
2017-05-26T12:06:42.997Z,7.30
2017-05-26T12:09:10.780Z,6.40
2017-05-26T12:11:38.566Z,7.52
2017-05-26T12:14:06.380Z,7.54
2017-05-26T12:16:34.173Z,7.54
2017-05-26T12:19:01.985Z,6.68
2017-05-26T12:21:29.802Z,7.02
2017-05-26T12:23:57.588Z,8.28
2017-05-26T12:26:25.384Z,8.20
2017-05-26T12:28:53.375Z,7.04
2017-05-26T12:31:21.172Z,6.38
2017-05-26T12:33:48.958Z,7.56
2017-05-26T12:36:17.085Z,6.18
2017-05-26T12:38:44.874Z,5.72
2017-05-26T12:41:12.665Z,6.34
2017-05-26T12:43:40.480Z,7.10
2017-05-26T12:46:08.961Z,7.40
2017-05-26T12:48:36.760Z,6.76
2017-05-26T12:51:06.023Z,6.04
2017-05-26T12:53:33.813Z,5.00
2017-05-26T12:56:01.600Z,5.32
2017-05-26T12:58:29.929Z,6.48
2017-05-26T13:00:57.721Z,5.04
2017-05-26T13:03:25.813Z,5.52
2017-05-26T13:05:53.633Z,4.54
2017-05-26T13:08:21.452Z,4.26
2017-05-26T13:10:49.237Z,5.34
2017-05-26T13:13:17.632Z,4.28
2017-05-26T13:15:45.426Z,3.90
2017-05-26T13:18:13.218Z,4.54
2017-05-26T13:20:41.844Z,5.10
2017-05-26T13:23:09.632Z,3.66
2017-05-26T13:25:37.434Z,4.90
2017-05-26T13:28:05.628Z,5.38
2017-05-26T13:30:33.412Z,4.34
2017-05-26T13:33:02.005Z,4.20
2017-05-26T13:35:29.837Z,4.10
2017-05-26T13:37:57.631Z,4.02
2017-05-26T13:40:24.735Z,3.10
2017-05-26T13:42:53.057Z,3.10
2017-05-26T13:45:20.843Z,3.10
2017-05-26T13:47:49.345Z,3.22
2017-05-26T13:50:18.377Z,3.02
2017-05-26T13:52:46.164Z,2.80
2017-05-26T13:55:13.960Z,3.08
2017-05-26T13:57:42.218Z,2.78
2017-05-26T14:00:10.004Z,2.70
2017-05-26T14:02:37.791Z,2.34
2017-05-26T14:05:06.453Z,2.60
2017-05-26T14:07:33.507Z,2.56
2017-05-26T14:10:01.299Z,2.56
2017-05-26T14:12:29.298Z,1.68
2017-05-26T14:14:57.129Z,1.60
2017-05-26T14:17:24.177Z,1.90
2017-05-26T14:19:52.025Z,1.78
2017-05-26T14:22:19.821Z,1.82
2017-05-26T14:24:47.656Z,2.06
2017-05-26T14:27:15.483Z,0.94
2017-05-26T14:29:42.520Z,2.08
2017-05-26T14:32:09.566Z,1.78
2017-05-26T14:34:37.700Z,1.70
2017-05-26T14:37:05.485Z,1.32
2017-05-26T14:39:33.312Z,1.54
2017-05-26T14:42:01.951Z,2.12
2017-05-26T14:44:29.735Z,1.32
2017-05-26T14:46:57.524Z,1.64
2017-05-26T14:49:31.645Z,1.30
2017-05-26T14:51:59.438Z,1.12
2017-05-26T14:54:27.228Z,1.22
2017-05-26T14:56:55.058Z,1.66
2017-05-26T14:59:22.857Z,1.02
2017-05-26T15:01:50.652Z,1.18
2017-05-26T15:04:18.665Z,1.00
2017-05-26T15:06:46.440Z,1.34
2017-05-26T15:09:14.242Z,1.46
2017-05-26T15:11:42.616Z,1.44
2017-05-26T15:14:10.524Z,2.58
2017-05-26T15:16:38.319Z,3.98
2017-05-26T15:19:06.917Z,1.98
2017-05-26T15:21:34.720Z,1.80
2017-05-26T15:24:02.512Z,1.92
2017-05-26T15:26:30.352Z,1.66
2017-05-26T15:28:58.140Z,1.76
2017-05-26T15:31:25.926Z,2.50
2017-05-26T15:33:53.812Z,1.32
2017-05-26T15:36:21.624Z,1.46
2017-05-26T15:38:49.434Z,1.52
2017-05-26T15:41:17.244Z,1.40
2017-05-26T15:43:45.053Z,0.88
2017-05-26T15:46:12.852Z,1.00
2017-05-26T15:48:41.645Z,1.00
2017-05-26T15:51:10.235Z,0.72
2017-05-26T15:53:38.018Z,1.06
2017-05-26T15:56:05.832Z,1.30
2017-05-26T15:58:33.625Z,0.92
2017-05-26T16:01:01.435Z,1.10
2017-05-26T16:03:30.601Z,1.10
2017-05-26T16:05:58.398Z,1.28
2017-05-26T16:08:25.525Z,0.80
2017-05-26T16:10:53.876Z,0.98
2017-05-26T16:13:21.670Z,1.00
2017-05-26T16:15:49.448Z,0.80
2017-05-26T16:18:17.501Z,0.74
2017-05-26T16:20:45.293Z,0.82
2017-05-26T16:23:12.313Z,0.82
2017-05-26T16:25:41.893Z,0.80
2017-05-26T16:28:09.798Z,0.78
2017-05-26T16:30:37.539Z,0.86
2017-05-26T16:33:05.302Z,1.40
2017-05-26T16:35:33.035Z,0.90
2017-05-26T16:38:00.783Z,0.90
2017-05-26T16:40:29.849Z,0.70
2017-05-26T16:42:57.580Z,0.80
2017-05-26T16:45:25.325Z,0.90
2017-05-26T16:47:53.488Z,1.08
2017-05-26T16:50:21.225Z,1.00
2017-05-26T16:52:49.599Z,0.78
2017-05-26T16:55:17.763Z,1.10
2017-05-26T16:57:44.725Z,1.02
2017-05-26T17:00:12.452Z,0.74
2017-05-26T17:02:40.204Z,0.70
2017-05-26T17:05:07.969Z,0.90
2017-05-26T17:07:34.973Z,0.90
2017-05-26T17:10:03.229Z,0.74
2017-05-26T17:12:31.206Z,0.70
2017-05-26T17:14:58.956Z,0.94
2017-05-26T17:17:26.408Z,0.92
2017-05-26T17:19:54.200Z,1.50
2017-05-26T17:22:21.951Z,1.46
2017-05-26T17:24:50.098Z,1.00
2017-05-26T17:27:17.825Z,1.42
2017-05-26T17:29:45.572Z,1.46
2017-05-26T17:32:13.708Z,1.00
2017-05-26T17:34:41.546Z,1.20
2017-05-26T17:37:09.310Z,1.06
2017-05-26T17:39:37.513Z,1.30
2017-05-26T17:42:05.256Z,1.42
2017-05-26T17:44:32.985Z,1.22
2017-05-26T17:47:01.231Z,1.42
2017-05-26T17:49:28.981Z,1.74
2017-05-26T17:51:56.717Z,1.26
2017-05-26T17:54:25.602Z,1.26
2017-05-26T17:56:53.367Z,1.34
2017-05-26T17:59:23.400Z,1.36
2017-05-26T18:01:51.967Z,1.40
2017-05-26T18:04:19.787Z,1.40
2017-05-26T18:06:47.902Z,1.42
2017-05-26T18:09:16.797Z,1.52
2017-05-26T18:11:44.799Z,1.52
2017-05-26T18:14:12.627Z,1.30
2017-05-26T18:16:40.904Z,1.66
2017-05-26T18:19:08.645Z,1.72
2017-05-26T18:21:36.057Z,1.78
2017-05-26T18:24:03.925Z,1.60
2017-05-26T18:29:18.121Z,1.60
2017-05-26T18:31:45.882Z,2.16
2017-05-26T18:34:12.855Z,1.66
2017-05-26T18:36:40.113Z,2.56
2017-05-26T18:39:07.879Z,2.18
2017-05-26T18:41:35.647Z,4.02
2017-05-26T18:44:04.211Z,3.16
2017-05-26T18:46:32.466Z,3.38
2017-05-26T18:49:00.237Z,2.84
2017-05-26T18:51:28.229Z,3.56
2017-05-26T18:53:55.255Z,1.92
2017-05-26T18:56:23.010Z,2.38
2017-05-26T18:58:51.158Z,2.70
2017-05-26T19:01:19.516Z,2.60
2017-05-26T19:03:47.257Z,2.50
2017-05-26T19:06:15.420Z,2.46
2017-05-26T19:08:42.396Z,2.58
2017-05-26T19:11:10.132Z,2.84
2017-05-26T19:13:38.330Z,2.60
2017-05-26T19:16:06.473Z,3.00
2017-05-26T19:18:33.432Z,4.12
2017-05-26T19:23:49.000Z,4.16
2017-05-26T19:34:35.069Z,5.60
2017-05-26T19:37:02.795Z,4.88
2017-05-26T19:39:29.752Z,4.36
2017-05-26T19:41:57.519Z,4.58
2017-05-26T19:44:25.273Z,4.38
2017-05-26T19:46:53.030Z,3.20
2017-05-26T19:49:20.817Z,3.16
2017-05-26T19:51:48.577Z,3.54
2017-05-26T19:54:16.300Z,3.28
2017-05-26T19:56:44.125Z,3.08
2017-05-26T19:59:11.940Z,3.50
2017-05-26T20:01:39.705Z,3.26
2017-05-26T20:04:08.444Z,5.08
2017-05-26T20:06:36.228Z,5.00
2017-05-26T20:09:03.982Z,4.52
2017-05-26T20:11:31.720Z,4.26
2017-05-26T20:13:59.621Z,4.48
2017-05-26T20:16:27.356Z,5.64
2017-05-26T20:18:55.694Z,4.42
2017-05-26T20:21:23.416Z,4.64
2017-05-26T20:23:51.452Z,4.58
2017-05-26T20:26:19.182Z,4.06
2017-05-26T20:28:46.202Z,5.52
2017-05-26T20:31:13.951Z,6.04
2017-05-26T20:33:41.689Z,4.38
2017-05-26T20:36:09.476Z,5.20
2017-05-26T20:38:37.223Z,7.08
2017-05-26T20:41:04.996Z,5.62
2017-05-26T20:43:32.728Z,6.60
2017-05-26T20:46:00.462Z,5.28
2017-05-26T20:48:28.214Z,4.70
2017-05-26T20:50:55.943Z,5.38
2017-05-26T20:53:23.716Z,4.92
2017-05-26T20:55:51.459Z,4.88
2017-05-26T20:58:19.235Z,5.32
2017-05-26T21:00:46.200Z,4.58
2017-05-26T21:03:13.945Z,4.66
2017-05-26T21:05:41.732Z,4.26
2017-05-26T21:08:09.462Z,3.98
2017-05-26T21:10:37.224Z,4.64
2017-05-26T21:13:04.950Z,4.78
2017-05-26T21:15:32.741Z,5.60
2017-05-26T21:18:00.504Z,5.00
2017-05-26T21:20:28.244Z,6.34
2017-05-26T21:22:56.005Z,5.50
2017-05-26T21:25:23.733Z,6.50
2017-05-26T21:27:51.498Z,4.32
2017-05-26T21:30:19.226Z,4.90
2017-05-26T21:32:47.009Z,6.00
2017-05-26T21:35:14.747Z,5.20
2017-05-26T21:37:41.709Z,4.64
2017-05-26T21:40:09.478Z,4.78
2017-05-26T21:42:37.213Z,4.68
2017-05-26T21:45:04.976Z,5.72
2017-05-26T21:47:32.713Z,7.10
2017-05-26T21:50:00.509Z,5.78
2017-05-26T21:52:28.240Z,5.44
2017-05-26T21:54:56.253Z,5.70
2017-05-26T21:57:24.090Z,5.86
2017-05-26T21:59:51.815Z,5.78
2017-05-26T22:02:19.580Z,6.36
2017-05-26T22:04:47.313Z,5.76
2017-05-26T22:07:15.044Z,5.80
2017-05-26T22:09:42.809Z,5.46
2017-05-26T22:12:10.541Z,6.00
2017-05-26T22:14:38.297Z,5.34
2017-05-26T22:17:06.032Z,5.66
2017-05-26T22:19:33.809Z,5.88
2017-05-26T22:22:01.585Z,6.10
2017-05-26T22:24:29.318Z,5.98
2017-05-26T22:26:57.087Z,6.38
2017-05-26T22:29:24.824Z,6.48
2017-05-26T22:31:52.585Z,5.12
2017-05-26T22:34:20.317Z,6.12
2017-05-26T22:36:48.100Z,6.54
2017-05-26T22:39:15.836Z,6.36
2017-05-26T22:41:43.563Z,6.06
2017-05-26T22:44:11.340Z,6.72
2017-05-26T22:46:39.072Z,6.94
2017-05-26T22:49:06.835Z,6.26
2017-05-26T22:51:34.565Z,6.04
2017-05-26T22:54:02.320Z,5.40
2017-05-26T22:56:30.067Z,5.66
2017-05-26T22:58:57.864Z,5.12
2017-05-26T23:01:25.597Z,5.26
2017-05-26T23:03:53.511Z,5.00
2017-05-26T23:06:21.256Z,5.74
2017-05-26T23:08:48.995Z,5.78
2017-05-26T23:11:16.756Z,5.06
2017-05-26T23:13:44.491Z,4.62
2017-05-26T23:16:12.296Z,5.24
2017-05-26T23:18:40.031Z,4.98
2017-05-26T23:21:08.803Z,5.16
2017-05-26T23:23:36.568Z,4.84
2017-05-26T23:26:04.305Z,4.66
2017-05-26T23:28:32.081Z,4.50
2017-05-26T23:30:59.810Z,4.48
2017-05-26T23:33:27.590Z,4.72
2017-05-26T23:35:55.351Z,4.90
2017-05-26T23:38:23.088Z,4.50
2017-05-26T23:40:50.849Z,3.66
2017-05-26T23:43:18.593Z,4.36
2017-05-26T23:45:46.354Z,4.26
2017-05-26T23:48:14.090Z,3.50
2017-05-26T23:50:41.854Z,4.00
2017-05-26T23:53:09.599Z,4.02
2017-05-26T23:55:37.394Z,3.86
2017-05-26T23:58:05.130Z,4.30
